createdAt,value
2022-12-01T00:01:01.401Z,102450.69
2022-12-01T00:03:31.176Z,102457.78
2022-12-01T00:05:59.450Z,102454.63
2022-12-01T00:08:26.377Z,102456.47
2022-12-01T00:10:53.102Z,102459.16
2022-12-01T00:13:19.593Z,102462.47
2022-12-01T00:15:46.253Z,102464.22
2022-12-01T00:18:12.742Z,102453.84
2022-12-01T00:20:40.347Z,102448.88
2022-12-01T00:23:06.944Z,102452.72
2022-12-01T00:25:33.440Z,102452.91
2022-12-01T00:27:59.928Z,102451.00
2022-12-01T00:30:26.371Z,102450.41
2022-12-01T00:32:52.823Z,102449.75
2022-12-01T00:35:19.386Z,102448.59
2022-12-01T00:37:45.803Z,102448.69
2022-12-01T00:40:12.756Z,102444.59
2022-12-01T00:42:39.303Z,102449.75
2022-12-01T00:45:06.331Z,102444.38
2022-12-01T00:47:32.758Z,102446.22
2022-12-01T00:49:59.562Z,102441.63
2022-12-01T00:52:26.145Z,102444.66
2022-12-01T00:54:52.604Z,102444.66
2022-12-01T00:57:19.015Z,102445.81
2022-12-01T00:59:45.652Z,102446.97
2022-12-01T01:02:13.451Z,102446.66
2022-12-01T01:04:39.927Z,102451.47
2022-12-01T01:07:06.434Z,102453.47
2022-12-01T01:09:33.466Z,102446.50
2022-12-01T01:11:59.991Z,102458.28
2022-12-01T01:14:26.624Z,102459.34
2022-12-01T01:16:54.124Z,102455.88
2022-12-01T01:19:20.550Z,102467.00
2022-12-01T01:21:47.023Z,102457.25
2022-12-01T01:24:13.486Z,102461.94
2022-12-01T01:26:39.995Z,102467.50
2022-12-01T01:29:09.637Z,102464.81
2022-12-01T01:31:36.547Z,102469.50
2022-12-01T01:34:03.870Z,102470.25
2022-12-01T01:36:31.115Z,102465.44
2022-12-01T01:38:57.705Z,102475.22
2022-12-01T01:41:24.814Z,102471.31
2022-12-01T01:43:52.866Z,102477.06
2022-12-01T01:46:24.258Z,102474.00
2022-12-01T01:48:50.747Z,102480.03
2022-12-01T01:51:24.341Z,102476.03
2022-12-01T01:53:55.775Z,102475.44
2022-12-01T01:56:23.677Z,102478.88
2022-12-01T01:58:50.984Z,102475.63
2022-12-01T02:01:17.460Z,102477.47
2022-12-01T02:03:45.266Z,102474.56
2022-12-01T02:06:11.910Z,102481.09
2022-12-01T02:08:38.369Z,102487.97
2022-12-01T02:11:13.900Z,102477.81
2022-12-01T02:13:53.722Z,102479.66
2022-12-01T02:16:53.417Z,102480.81
2022-12-01T02:19:31.861Z,102482.03
2022-12-01T02:22:35.885Z,102475.63
2022-12-01T02:25:21.361Z,102470.25
2022-12-01T02:28:06.495Z,102468.16
2022-12-01T02:30:41.181Z,102471.03
2022-12-01T02:33:16.897Z,102465.94
2022-12-01T02:35:55.897Z,102468.22
2022-12-01T02:38:38.112Z,102469.78
2022-12-01T02:41:39.704Z,102471.03
2022-12-01T02:44:17.021Z,102467.88
2022-12-01T02:47:01.860Z,102463.25
2022-12-01T02:49:33.387Z,102468.22
2022-12-01T02:52:01.619Z,102472.84
2022-12-01T02:54:31.255Z,102466.72
2022-12-01T02:56:57.841Z,102480.34
2022-12-01T02:59:24.405Z,102469.59
2022-12-01T03:02:18.838Z,102471.91
2022-12-01T03:05:09.962Z,102472.66
2022-12-01T03:07:36.996Z,102475.84
2022-12-01T03:10:37.400Z,102477.53
2022-12-01T03:13:38.530Z,102471.31
2022-12-01T03:16:14.397Z,102478.78
2022-12-01T03:18:57.108Z,102474.66
2022-12-01T03:21:37.140Z,102474.31
2022-12-01T03:24:11.592Z,102470.19
2022-12-01T03:26:40.683Z,102464.59
2022-12-01T03:29:11.140Z,102462.03
2022-12-01T03:31:44.553Z,102466.22
2022-12-01T03:34:34.333Z,102465.75
2022-12-01T03:37:18.253Z,102467.59
2022-12-01T03:39:47.990Z,102463.97
2022-12-01T03:42:24.637Z,102478.31
2022-12-01T03:44:55.484Z,102473.59
2022-12-01T03:47:32.499Z,102476.09
2022-12-01T03:50:00.469Z,102478.78
2022-12-01T03:52:49.618Z,102477.66
2022-12-01T03:55:31.676Z,102481.28
2022-12-01T03:58:01.599Z,102479.66
2022-12-01T04:00:29.573Z,102481.38
2022-12-01T04:02:58.506Z,102481.28
2022-12-01T04:05:26.105Z,102474.22
2022-12-01T04:07:53.349Z,102476.19
2022-12-01T04:10:19.967Z,102476.38
2022-12-01T04:12:46.448Z,102478.38
2022-12-01T04:15:14.490Z,102479.84
2022-12-01T04:17:45.629Z,102485.38
2022-12-01T04:20:14.584Z,102480.34
2022-12-01T04:22:41.322Z,102480.41
2022-12-01T04:25:08.933Z,102481.34
2022-12-01T04:27:36.161Z,102476.78
2022-12-01T04:30:05.438Z,102481.00
2022-12-01T04:32:31.977Z,102484.84
2022-12-01T04:34:58.373Z,102477.63
2022-12-01T04:37:24.921Z,102473.59
2022-12-01T04:39:51.756Z,102480.13
2022-12-01T04:42:18.545Z,102478.50
2022-12-01T04:44:45.093Z,102479.38
2022-12-01T04:47:11.536Z,102476.88
2022-12-01T04:49:37.978Z,102480.13
2022-12-01T04:52:04.851Z,102475.31
2022-12-01T04:54:31.386Z,102477.25
2022-12-01T04:56:57.764Z,102484.22
2022-12-01T04:59:24.287Z,102473.22
2022-12-01T05:01:50.816Z,102479.66
2022-12-01T05:04:17.496Z,102479.19
2022-12-01T05:06:43.984Z,102477.34
2022-12-01T05:09:17.401Z,102476.19
2022-12-01T05:11:44.801Z,102477.47
2022-12-01T05:14:11.327Z,102486.13
2022-12-01T05:16:37.850Z,102483.34
2022-12-01T05:19:24.278Z,102484.41
2022-12-01T05:21:51.929Z,102490.44
2022-12-01T05:24:20.287Z,102483.34
2022-12-01T05:26:46.890Z,102487.19
2022-12-01T05:29:13.593Z,102475.09
2022-12-01T05:31:40.367Z,102475.31
2022-12-01T05:34:07.761Z,102474.66
2022-12-01T05:36:34.603Z,102478.84
2022-12-01T05:39:01.150Z,102479.91
2022-12-01T05:41:27.685Z,102481.81
2022-12-01T05:43:54.113Z,102485.38
2022-12-01T05:46:20.596Z,102485.78
2022-12-01T05:48:47.324Z,102484.16
2022-12-01T05:51:15.808Z,102481.47
2022-12-01T05:53:43.067Z,102484.91
2022-12-01T05:56:09.775Z,102480.97
2022-12-01T05:58:36.553Z,102480.97
2022-12-01T06:01:03.657Z,102478.97
2022-12-01T06:03:30.140Z,102482.94
2022-12-01T06:05:56.534Z,102482.72
2022-12-01T06:08:23.053Z,102485.31
2022-12-01T06:10:49.523Z,102489.25
2022-12-01T06:13:16.024Z,102491.16
2022-12-01T06:15:42.606Z,102483.78
2022-12-01T06:18:09.115Z,102484.66
2022-12-01T06:20:35.845Z,102496.03
2022-12-01T06:23:02.680Z,102497.91
2022-12-01T06:25:29.181Z,102495.13
2022-12-01T06:27:57.669Z,102498.34
2022-12-01T06:30:24.456Z,102499.72
2022-12-01T06:32:50.950Z,102489.88
2022-12-01T06:35:17.414Z,102495.09
2022-12-01T06:37:43.957Z,102495.25
2022-12-01T06:40:11.276Z,102496.25
2022-12-01T06:42:37.736Z,102498.84
2022-12-01T06:45:04.502Z,102493.28
2022-12-01T06:47:30.976Z,102491.25
2022-12-01T06:49:57.499Z,102489.59
2022-12-01T06:52:23.899Z,102490.44
2022-12-01T06:54:50.327Z,102489.44
2022-12-01T06:57:17.075Z,102494.00
2022-12-01T06:59:43.879Z,102505.81
2022-12-01T07:02:11.318Z,102507.44
2022-12-01T07:04:37.803Z,102518.03
2022-12-01T07:07:05.940Z,102516.38
2022-12-01T07:09:32.429Z,102522.47
2022-12-01T07:11:59.075Z,102522.03
2022-12-01T07:14:31.555Z,102526.03
2022-12-01T07:16:58.976Z,102522.47
2022-12-01T07:19:25.670Z,102529.38
2022-12-01T07:21:52.162Z,102527.72
2022-12-01T07:24:18.594Z,102532.00
2022-12-01T07:26:45.070Z,102537.69
2022-12-01T07:29:11.941Z,102538.38
2022-12-01T07:31:39.187Z,102533.84
2022-12-01T07:34:06.369Z,102533.78
2022-12-01T07:36:33.254Z,102537.25
2022-12-01T07:38:59.704Z,102545.59
2022-12-01T07:41:26.158Z,102543.19
2022-12-01T07:43:52.663Z,102541.97
2022-12-01T07:46:24.188Z,102548.25
2022-12-01T07:48:51.849Z,102549.06
2022-12-01T07:51:18.881Z,102551.81
2022-12-01T07:53:46.952Z,102556.91
2022-12-01T07:56:13.908Z,102550.31
2022-12-01T07:58:40.858Z,102547.56
2022-12-01T08:01:16.027Z,102543.56
2022-12-01T08:03:42.921Z,102553.16
2022-12-01T08:06:10.507Z,102558.03
2022-12-01T08:08:38.447Z,102563.97
2022-12-01T08:11:09.858Z,102561.63
2022-12-01T08:13:36.525Z,102567.19
2022-12-01T08:16:05.333Z,102561.47
2022-12-01T08:18:34.958Z,102566.94
2022-12-01T08:21:01.658Z,102563.22
2022-12-01T08:23:28.108Z,102557.03
2022-12-01T08:25:54.676Z,102563.25
2022-12-01T08:28:21.477Z,102565.69
2022-12-01T08:30:48.013Z,102569.31
2022-12-01T08:33:14.604Z,102571.44
2022-12-01T08:35:41.044Z,102572.28
2022-12-01T08:38:07.472Z,102581.06
2022-12-01T08:40:33.911Z,102574.97
2022-12-01T08:43:00.441Z,102580.44
2022-12-01T08:45:26.863Z,102579.25
2022-12-01T08:47:54.832Z,102584.84
2022-12-01T08:50:21.442Z,102581.06
2022-12-01T08:52:47.983Z,102581.47
2022-12-01T08:55:14.416Z,102583.28
2022-12-01T08:57:40.915Z,102583.47
2022-12-01T09:00:08.018Z,102584.75
2022-12-01T09:02:34.877Z,102586.16
2022-12-01T09:05:01.493Z,102592.09
2022-12-01T09:07:28.037Z,102589.41
2022-12-01T09:09:54.658Z,102589.66
2022-12-01T09:12:21.242Z,102590.16
2022-12-01T09:14:49.666Z,102594.53
2022-12-01T09:17:17.303Z,102596.06
2022-12-01T09:19:44.462Z,102601.72
2022-12-01T09:22:11.810Z,102596.66
2022-12-01T09:24:38.641Z,102596.00
2022-12-01T09:27:05.360Z,102596.56
2022-12-01T09:29:32.573Z,102596.16
2022-12-01T09:32:00.396Z,102592.38
2022-12-01T09:34:29.046Z,102591.22
2022-12-01T09:36:58.312Z,102583.19
2022-12-01T09:39:25.515Z,102589.81
2022-12-01T09:42:13.765Z,102578.88
2022-12-01T09:44:49.828Z,102588.47
2022-12-01T09:47:34.813Z,102579.28
2022-12-01T09:50:11.933Z,102584.91
2022-12-01T09:52:57.532Z,102577.72
2022-12-01T09:55:26.247Z,102580.59
2022-12-01T09:57:55.738Z,102582.81
2022-12-01T10:07:51.750Z,102530.59
2022-12-01T10:10:24.675Z,102524.59
2022-12-01T10:12:51.172Z,102520.81
2022-12-01T10:15:36.939Z,102523.59
2022-12-01T10:18:55.955Z,102526.06
2022-12-01T10:21:41.037Z,102524.88
2022-12-01T10:24:35.764Z,102524.06
2022-12-01T10:27:32.696Z,102523.53
2022-12-01T10:30:18.865Z,102522.09
2022-12-01T10:32:56.381Z,102528.09
2022-12-01T10:35:26.925Z,102523.38
2022-12-01T10:38:00.811Z,102523.47
2022-12-01T10:40:28.503Z,102521.19
2022-12-01T10:42:55.681Z,102518.41
2022-12-01T10:45:27.687Z,102513.81
2022-12-01T10:48:26.870Z,102526.03
2022-12-01T10:50:55.863Z,102524.94
2022-12-01T10:53:22.525Z,102533.53
2022-12-01T10:56:13.028Z,102527.63
2022-12-01T10:59:17.721Z,102533.09
2022-12-01T11:01:48.278Z,102535.53
2022-12-01T11:04:46.340Z,102530.69
2022-12-01T11:07:43.189Z,102529.16
2022-12-01T11:10:15.842Z,102522.88
2022-12-01T11:12:45.154Z,102528.63
2022-12-01T11:15:34.447Z,102538.91
2022-12-01T11:18:03.523Z,102532.28
2022-12-01T11:20:36.462Z,102535.41
2022-12-01T11:23:24.381Z,102535.41
2022-12-01T11:26:03.203Z,102529.66
2022-12-01T11:28:30.696Z,102520.25
2022-12-01T11:31:01.392Z,102527.91
2022-12-01T11:33:30.881Z,102519.78
2022-12-01T11:35:57.599Z,102518.91
2022-12-01T11:38:32.911Z,102497.69
2022-12-01T11:40:59.406Z,102490.91
2022-12-01T11:43:31.842Z,102490.09
2022-12-01T11:46:02.705Z,102477.66
2022-12-01T11:48:32.112Z,102478.59
2022-12-01T11:51:08.542Z,102476.06
2022-12-01T11:53:41.374Z,102463.38
2022-12-01T11:56:18.505Z,102471.94
2022-12-01T11:58:47.325Z,102471.63
2022-12-01T12:01:28.948Z,102472.94
2022-12-01T12:03:58.401Z,102466.78
2022-12-01T12:07:15.195Z,102468.31
2022-12-01T12:10:07.384Z,102462.28
2022-12-01T12:12:33.789Z,102474.63
2022-12-01T12:15:44.603Z,102468.94
2022-12-01T12:18:14.300Z,102462.94
2022-12-01T12:21:05.154Z,102465.13
2022-12-01T12:23:40.760Z,102469.31
2022-12-01T12:26:18.926Z,102470.16
2022-12-01T12:29:07.085Z,102464.59
2022-12-01T12:31:51.325Z,102471.47
2022-12-01T12:34:50.459Z,102472.34
2022-12-01T12:37:43.713Z,102475.09
2022-12-01T12:40:10.266Z,102472.63
2022-12-01T12:43:15.622Z,102468.19
2022-12-01T12:45:51.125Z,102468.31
2022-12-01T12:48:23.654Z,102469.56
2022-12-01T12:51:08.318Z,102471.31
2022-12-01T12:53:47.387Z,102464.66
2022-12-01T12:56:17.157Z,102471.44
2022-12-01T12:58:54.786Z,102464.56
2022-12-01T13:01:25.015Z,102466.53
2022-12-01T13:03:58.151Z,102472.28
2022-12-01T13:06:36.566Z,102463.75
2022-12-01T13:09:24.217Z,102453.94
2022-12-01T13:12:01.525Z,102461.44
2022-12-01T13:14:39.448Z,102460.81
2022-12-01T13:17:14.743Z,102459.78
2022-12-01T13:19:43.159Z,102457.66
2022-12-01T13:22:12.791Z,102455.78
2022-12-01T13:24:39.519Z,102446.72
2022-12-01T13:27:25.192Z,102450.56
2022-12-01T13:29:54.363Z,102452.25
2022-12-01T13:32:36.791Z,102440.03
2022-12-01T13:35:07.921Z,102437.13
2022-12-01T13:37:37.992Z,102432.72
2022-12-01T13:40:31.259Z,102439.47
2022-12-01T13:43:08.892Z,102439.56
2022-12-01T13:45:40.544Z,102438.72
2022-12-01T13:48:27.119Z,102440.28
2022-12-01T13:50:53.521Z,102433.53
2022-12-01T13:53:19.951Z,102436.78
2022-12-01T13:56:04.241Z,102440.56
2022-12-01T13:58:33.696Z,102435.09
2022-12-01T14:01:23.121Z,102441.66
2022-12-01T14:04:03.024Z,102435.88
2022-12-01T14:06:50.018Z,102438.59
2022-12-01T14:09:33.350Z,102432.25
2022-12-01T14:12:22.280Z,102439.66
2022-12-01T14:14:59.832Z,102436.69
2022-12-01T14:17:30.421Z,102444.44
2022-12-01T14:20:17.883Z,102442.38
2022-12-01T14:22:47.098Z,102449.59
2022-12-01T14:25:19.619Z,102441.72
2022-12-01T14:27:48.325Z,102440.88
2022-12-01T14:30:45.107Z,102434.72
2022-12-01T14:33:39.480Z,102435.44
2022-12-01T14:36:29.085Z,102439.72
2022-12-01T14:38:58.928Z,102437.81
2022-12-01T14:41:25.454Z,102437.53
2022-12-01T14:44:06.644Z,102439.13
2022-12-01T14:46:51.632Z,102439.34
2022-12-01T14:49:24.084Z,102445.53
2022-12-01T14:51:56.543Z,102447.81
2022-12-01T14:54:33.686Z,102452.00
2022-12-01T14:57:08.121Z,102450.91
2022-12-01T14:59:36.526Z,102457.06
2022-12-01T15:02:09.082Z,102451.06
2022-12-01T15:05:15.570Z,102452.94
2022-12-01T15:07:45.653Z,102449.94
2022-12-01T15:10:29.900Z,102448.19
2022-12-01T15:12:56.387Z,102452.28
2022-12-01T15:15:24.520Z,102456.59
2022-12-01T15:17:53.015Z,102454.31
2022-12-01T15:20:35.692Z,102453.03
2022-12-01T15:23:11.998Z,102456.41
2022-12-01T15:25:42.451Z,102458.19
2022-12-01T15:28:18.274Z,102456.44
2022-12-01T15:30:55.845Z,102443.44
2022-12-01T15:33:28.368Z,102441.72
2022-12-01T15:35:57.099Z,102450.13
2022-12-01T15:38:35.901Z,102447.75
2022-12-01T15:43:57.046Z,102441.03
2022-12-01T15:46:31.537Z,102447.78
2022-12-01T15:49:27.327Z,102442.00
2022-12-01T15:51:54.617Z,102446.50
2022-12-01T15:54:24.561Z,102457.84
2022-12-01T15:56:53.997Z,102455.47
2022-12-01T15:59:31.145Z,102447.47
2022-12-01T16:01:58.408Z,102444.38
2022-12-01T16:04:28.251Z,102443.47
2022-12-01T16:06:58.722Z,102446.63
2022-12-01T16:09:35.398Z,102458.28
2022-12-01T16:12:16.977Z,102455.13
2022-12-01T16:15:01.517Z,102467.22
2022-12-01T16:17:40.528Z,102461.00
2022-12-01T16:20:28.636Z,102464.28
2022-12-01T16:22:59.231Z,102469.59
2022-12-01T16:25:43.370Z,102469.44
2022-12-01T16:28:22.525Z,102467.41
2022-12-01T16:30:49.649Z,102461.75
2022-12-01T16:33:17.536Z,102462.25
2022-12-01T16:35:44.449Z,102462.75
2022-12-01T16:38:23.732Z,102453.53
2022-12-01T16:40:52.892Z,102461.19
2022-12-01T16:43:22.461Z,102461.00
2022-12-01T16:45:52.921Z,102461.38
2022-12-01T16:48:20.374Z,102461.28
2022-12-01T16:50:48.663Z,102460.03
2022-12-01T16:53:15.530Z,102464.38
2022-12-01T16:55:56.052Z,102465.44
2022-12-01T16:58:23.265Z,102463.22
2022-12-01T17:00:52.614Z,102456.88
2022-12-01T17:03:24.923Z,102462.75
2022-12-01T17:05:52.172Z,102460.72
2022-12-01T17:08:19.183Z,102455.94
2022-12-01T17:10:47.896Z,102461.59
2022-12-01T17:13:14.332Z,102459.00
2022-12-01T17:15:46.196Z,102454.88
2022-12-01T17:18:14.468Z,102450.19
2022-12-01T17:20:41.414Z,102458.44
2022-12-01T17:23:08.137Z,102456.22
2022-12-01T17:25:34.882Z,102462.44
2022-12-01T17:28:01.385Z,102463.63
2022-12-01T17:30:27.914Z,102468.88
2022-12-01T17:32:54.349Z,102467.16
2022-12-01T17:35:20.890Z,102470.34
2022-12-01T17:37:47.291Z,102467.66
2022-12-01T17:40:14.871Z,102457.59
2022-12-01T17:42:46.802Z,102464.69
2022-12-01T17:45:17.599Z,102459.69
2022-12-01T17:47:44.061Z,102465.91
2022-12-01T17:50:11.080Z,102471.28
2022-12-01T17:52:37.641Z,102473.03
2022-12-01T17:55:04.635Z,102463.34
2022-12-01T17:57:31.150Z,102457.97
2022-12-01T17:59:57.662Z,102454.63
2022-12-01T18:02:24.512Z,102457.91
2022-12-01T18:04:51.491Z,102455.78
2022-12-01T18:07:18.239Z,102451.75
2022-12-01T18:09:44.773Z,102453.84
2022-12-01T18:12:11.310Z,102455.97
2022-12-01T18:14:38.304Z,102454.81
2022-12-01T18:17:05.737Z,102463.16
2022-12-01T18:19:32.643Z,102459.31
2022-12-01T18:21:59.676Z,102465.34
2022-12-01T18:24:26.129Z,102464.78
2022-12-01T18:26:54.614Z,102470.91
2022-12-01T18:29:26.099Z,102457.91
2022-12-01T18:31:54.548Z,102460.59
2022-12-01T18:34:21.300Z,102457.03
2022-12-01T18:36:47.834Z,102450.13
2022-12-01T18:39:14.336Z,102454.63
2022-12-01T18:41:41.511Z,102457.59
2022-12-01T18:44:08.424Z,102460.00
2022-12-01T18:46:35.152Z,102462.69
2022-12-01T18:49:02.913Z,102461.16
2022-12-01T18:51:31.476Z,102453.09
2022-12-01T18:53:59.688Z,102452.53
2022-12-01T18:56:27.120Z,102458.47
2022-12-01T18:58:58.693Z,102457.16
2022-12-01T19:01:32.019Z,102453.97
2022-12-01T19:03:59.216Z,102453.84
2022-12-01T19:06:26.522Z,102453.09
2022-12-01T19:08:54.008Z,102456.19
2022-12-01T19:11:20.645Z,102459.34
2022-12-01T19:13:47.631Z,102453.47
2022-12-01T19:16:17.745Z,102456.97
2022-12-01T19:18:44.916Z,102459.25
2022-12-01T19:21:13.884Z,102455.97
2022-12-01T19:23:40.478Z,102461.47
2022-12-01T19:26:10.536Z,102455.09
2022-12-01T19:28:38.000Z,102456.16
2022-12-01T19:31:12.703Z,102454.34
2022-12-01T19:33:39.771Z,102458.66
2022-12-01T19:36:08.155Z,102455.22
2022-12-01T19:38:34.918Z,102453.50
2022-12-01T19:41:01.895Z,102455.22
2022-12-01T19:43:28.714Z,102452.66
2022-12-01T19:45:55.398Z,102455.91
2022-12-01T19:48:21.851Z,102459.16
2022-12-01T19:50:48.351Z,102456.84
2022-12-01T19:53:14.843Z,102457.41
2022-12-01T19:55:41.377Z,102463.66
2022-12-01T19:58:07.779Z,102457.63
2022-12-01T20:00:34.350Z,102467.00
2022-12-01T20:03:01.193Z,102461.94
2022-12-01T20:05:27.787Z,102471.63
2022-12-01T20:07:54.297Z,102459.91
2022-12-01T20:10:20.848Z,102469.00
2022-12-01T20:12:47.844Z,102459.44
2022-12-01T20:15:15.113Z,102461.47
2022-12-01T20:17:41.819Z,102463.19
2022-12-01T20:20:10.221Z,102457.25
2022-12-01T20:22:37.793Z,102460.38
2022-12-01T20:25:05.804Z,102458.78
2022-12-01T20:27:32.431Z,102460.31
2022-12-01T20:29:58.971Z,102459.50
2022-12-01T20:32:25.490Z,102460.38
2022-12-01T20:34:52.171Z,102457.22
2022-12-01T20:37:18.925Z,102462.88
2022-12-01T20:39:45.383Z,102456.66
2022-12-01T20:42:11.950Z,102456.47
2022-12-01T20:44:39.999Z,102458.75
2022-12-01T20:47:06.790Z,102455.41
2022-12-01T20:49:33.229Z,102458.47
2022-12-01T20:51:59.641Z,102455.88
2022-12-01T20:54:28.438Z,102462.19
2022-12-01T20:56:56.784Z,102459.91
2022-12-01T20:59:23.372Z,102456.44
2022-12-01T21:01:49.812Z,102449.00
2022-12-01T21:04:16.402Z,102454.56
2022-12-01T21:06:42.876Z,102448.91
2022-12-01T21:09:09.685Z,102442.84
2022-12-01T21:12:06.949Z,102432.31
2022-12-01T21:14:47.463Z,102437.97
2022-12-01T21:17:33.252Z,102443.13
2022-12-01T21:20:22.604Z,102435.38
2022-12-01T21:22:50.477Z,102440.56
2022-12-01T21:25:23.405Z,102440.16
2022-12-01T21:27:50.344Z,102434.34
2022-12-01T21:30:29.945Z,102426.00
2022-12-01T21:33:15.719Z,102435.59
2022-12-01T21:35:42.601Z,102430.50
2022-12-01T21:38:16.475Z,102423.00
2022-12-01T21:40:46.869Z,102414.56
2022-12-01T21:43:23.026Z,102412.31
2022-12-01T21:46:00.282Z,102408.06
2022-12-01T21:48:35.315Z,102405.47
2022-12-01T21:51:06.946Z,102400.78
2022-12-01T21:53:39.111Z,102397.16
2022-12-01T21:56:05.882Z,102398.88
2022-12-01T21:58:36.504Z,102398.47
2022-12-01T22:01:14.854Z,102395.63
2022-12-01T22:03:45.250Z,102398.88
2022-12-01T22:06:40.272Z,102402.16
2022-12-01T22:09:21.734Z,102401.28
2022-12-01T22:11:53.184Z,102398.47
2022-12-01T22:14:23.289Z,102406.75
2022-12-01T22:17:09.005Z,102401.28
2022-12-01T22:19:38.504Z,102407.50
2022-12-01T22:22:10.598Z,102410.28
2022-12-01T22:24:37.196Z,102405.19
2022-12-01T22:27:25.167Z,102408.44
2022-12-01T22:29:56.141Z,102411.38
2022-12-01T22:32:36.832Z,102405.88
2022-12-01T22:35:19.745Z,102407.41
2022-12-01T22:37:52.151Z,102397.13
2022-12-01T22:40:39.700Z,102396.25
2022-12-01T22:43:22.711Z,102397.81
2022-12-01T22:46:00.054Z,102394.72
2022-12-01T22:48:37.473Z,102394.94
2022-12-01T22:51:12.948Z,102390.31
2022-12-01T22:53:40.962Z,102397.91
2022-12-01T22:56:25.841Z,102391.78
2022-12-01T22:58:52.469Z,102393.72
2022-12-01T23:01:26.850Z,102389.16
2022-12-01T23:03:58.724Z,102397.81
2022-12-01T23:06:56.018Z,102391.09
2022-12-01T23:09:26.424Z,102395.91
2022-12-01T23:11:58.389Z,102388.41
2022-12-01T23:14:25.099Z,102392.38
2022-12-01T23:16:57.400Z,102392.09
2022-12-01T23:19:24.997Z,102384.09
2022-12-01T23:21:52.763Z,102382.31
2022-12-01T23:24:19.252Z,102381.72
2022-12-01T23:26:46.904Z,102379.53
2022-12-01T23:29:13.352Z,102379.59
2022-12-01T23:31:39.844Z,102370.00
2022-12-01T23:34:17.317Z,102374.06
2022-12-01T23:36:45.426Z,102370.00
2022-12-01T23:39:14.159Z,102366.38
2022-12-01T23:41:47.354Z,102370.63
2022-12-01T23:44:35.424Z,102363.97
2022-12-01T23:47:01.966Z,102366.84
2022-12-01T23:49:32.015Z,102360.44
2022-12-01T23:52:02.224Z,102358.53
2022-12-01T23:54:34.403Z,102358.41
2022-12-01T23:57:03.688Z,102352.00
2022-12-01T23:59:31.741Z,102362.16
